sensor_id;sensor_type;location;lat;lon;timestamp;pressure;altitude;pressure_sealevel;temperature;humidity
63395;BME280;49531;-34.520;150.798;2024-01-10T00:02:18;100573.69;;;26.12;63.01
63395;BME280;49531;-34.520;150.798;2024-01-10T00:04:46;100573.63;;;26.17;62.94
63395;BME280;49531;-34.520;150.798;2024-01-10T00:07:13;100564.78;;;26.20;63.35
63395;BME280;49531;-34.520;150.798;2024-01-10T00:09:40;100562.25;;;26.24;63.14
63395;BME280;49531;-34.520;150.798;2024-01-10T00:12:07;100554.84;;;26.24;63.15
63395;BME280;49531;-34.520;150.798;2024-01-10T00:14:34;100558.94;;;26.27;63.51
63395;BME280;49531;-34.520;150.798;2024-01-10T00:17:01;100555.56;;;26.30;63.49
63395;BME280;49531;-34.520;150.798;2024-01-10T00:19:29;100561.19;;;26.39;63.31
63395;BME280;49531;-34.520;150.798;2024-01-10T00:21:56;100556.72;;;26.43;63.23
63395;BME280;49531;-34.520;150.798;2024-01-10T00:24:23;100547.06;;;26.45;63.33
63395;BME280;49531;-34.520;150.798;2024-01-10T00:26:50;100555.19;;;26.50;63.05
63395;BME280;49531;-34.520;150.798;2024-01-10T00:29:17;100552.16;;;26.52;63.43
63395;BME280;49531;-34.520;150.798;2024-01-10T00:31:44;100554.47;;;26.58;63.23
63395;BME280;49531;-34.520;150.798;2024-01-10T00:34:11;100546.78;;;26.61;63.13
63395;BME280;49531;-34.520;150.798;2024-01-10T00:36:38;100556.63;;;26.62;63.05
63395;BME280;49531;-34.520;150.798;2024-01-10T00:39:05;100554.06;;;26.65;63.28
63395;BME280;49531;-34.520;150.798;2024-01-10T00:41:32;100561.38;;;26.70;63.05
63395;BME280;49531;-34.520;150.798;2024-01-10T00:43:59;100549.00;;;26.72;63.25
63395;BME280;49531;-34.520;150.798;2024-01-10T00:46:27;100544.53;;;26.76;63.07
63395;BME280;49531;-34.520;150.798;2024-01-10T00:48:54;100549.72;;;26.78;63.16
63395;BME280;49531;-34.520;150.798;2024-01-10T00:51:21;100547.94;;;26.82;62.98
63395;BME280;49531;-34.520;150.798;2024-01-10T00:53:48;100544.59;;;26.85;62.76
63395;BME280;49531;-34.520;150.798;2024-01-10T00:56:15;100535.75;;;26.88;62.85
63395;BME280;49531;-34.520;150.798;2024-01-10T00:58:43;100537.88;;;26.91;62.95
63395;BME280;49531;-34.520;150.798;2024-01-10T01:01:10;100538.09;;;26.95;62.95
63395;BME280;49531;-34.520;150.798;2024-01-10T01:03:37;100538.00;;;27.00;62.88
63395;BME280;49531;-34.520;150.798;2024-01-10T01:06:04;100528.34;;;27.02;62.76
63395;BME280;49531;-34.520;150.798;2024-01-10T01:08:31;100522.25;;;27.05;62.73
63395;BME280;49531;-34.520;150.798;2024-01-10T01:10:58;100528.25;;;27.07;62.53
63395;BME280;49531;-34.520;150.798;2024-01-10T01:13:25;100517.78;;;27.09;62.48
63395;BME280;49531;-34.520;150.798;2024-01-10T01:15:52;100515.53;;;27.11;62.26
63395;BME280;49531;-34.520;150.798;2024-01-10T01:18:20;100516.84;;;27.14;62.49
63395;BME280;49531;-34.520;150.798;2024-01-10T01:20:47;100509.63;;;27.18;62.43
63395;BME280;49531;-34.520;150.798;2024-01-10T01:23:16;100510.09;;;27.20;62.46
63395;BME280;49531;-34.520;150.798;2024-01-10T01:25:43;100514.97;;;27.23;62.12
63395;BME280;49531;-34.520;150.798;2024-01-10T01:28:11;100514.34;;;27.26;62.33
63395;BME280;49531;-34.520;150.798;2024-01-10T01:30:38;100513.41;;;27.31;62.08
63395;BME280;49531;-34.520;150.798;2024-01-10T01:33:05;100505.19;;;27.31;61.99
63395;BME280;49531;-34.520;150.798;2024-01-10T01:35:32;100515.53;;;27.34;61.98
63395;BME280;49531;-34.520;150.798;2024-01-10T01:37:59;100502.00;;;27.37;61.97
63395;BME280;49531;-34.520;150.798;2024-01-10T01:40:26;100509.63;;;27.40;61.96
63395;BME280;49531;-34.520;150.798;2024-01-10T01:42:54;100505.44;;;27.43;61.83
63395;BME280;49531;-34.520;150.798;2024-01-10T01:45:21;100498.53;;;27.45;62.00
63395;BME280;49531;-34.520;150.798;2024-01-10T01:47:48;100507.75;;;27.49;61.44
63395;BME280;49531;-34.520;150.798;2024-01-10T01:50:19;100501.13;;;27.50;61.95
63395;BME280;49531;-34.520;150.798;2024-01-10T01:52:46;100499.53;;;27.49;61.71
63395;BME280;49531;-34.520;150.798;2024-01-10T01:55:13;100498.28;;;27.55;61.90
63395;BME280;49531;-34.520;150.798;2024-01-10T01:57:41;100506.06;;;27.62;61.47
63395;BME280;49531;-34.520;150.798;2024-01-10T02:00:08;100501.06;;;27.64;61.35
63395;BME280;49531;-34.520;150.798;2024-01-10T02:02:36;100502.38;;;27.67;61.45
63395;BME280;49531;-34.520;150.798;2024-01-10T02:05:04;100505.00;;;27.72;61.62
63395;BME280;49531;-34.520;150.798;2024-01-10T02:07:31;100503.56;;;27.74;61.21
63395;BME280;49531;-34.520;150.798;2024-01-10T02:09:58;100501.31;;;27.76;61.24
63395;BME280;49531;-34.520;150.798;2024-01-10T02:12:25;100510.03;;;27.78;60.90
63395;BME280;49531;-34.520;150.798;2024-01-10T02:14:52;100510.53;;;27.80;61.10
63395;BME280;49531;-34.520;150.798;2024-01-10T02:17:20;100508.28;;;27.82;60.94
63395;BME280;49531;-34.520;150.798;2024-01-10T02:19:47;100491.50;;;27.84;61.16
63395;BME280;49531;-34.520;150.798;2024-01-10T02:22:14;100486.81;;;27.84;61.20
63395;BME280;49531;-34.520;150.798;2024-01-10T02:24:41;100492.69;;;27.92;61.31
63395;BME280;49531;-34.520;150.798;2024-01-10T02:27:08;100473.97;;;27.94;61.01
63395;BME280;49531;-34.520;150.798;2024-01-10T02:29:35;100485.94;;;27.98;60.79
63395;BME280;49531;-34.520;150.798;2024-01-10T02:32:02;100483.66;;;28.00;60.59
63395;BME280;49531;-34.520;150.798;2024-01-10T02:34:30;100486.56;;;28.03;60.67
63395;BME280;49531;-34.520;150.798;2024-01-10T02:36:57;100486.56;;;28.03;60.71
63395;BME280;49531;-34.520;150.798;2024-01-10T02:39:24;100464.78;;;28.07;60.55
63395;BME280;49531;-34.520;150.798;2024-01-10T02:41:51;100480.63;;;28.10;60.64
63395;BME280;49531;-34.520;150.798;2024-01-10T02:44:18;100476.75;;;28.11;60.51
63395;BME280;49531;-34.520;150.798;2024-01-10T02:46:46;100478.06;;;28.13;60.42
63395;BME280;49531;-34.520;150.798;2024-01-10T02:49:13;100486.47;;;28.17;60.36
63395;BME280;49531;-34.520;150.798;2024-01-10T02:51:40;100479.84;;;28.18;60.30
63395;BME280;49531;-34.520;150.798;2024-01-10T02:54:07;100483.63;;;28.22;60.45
63395;BME280;49531;-34.520;150.798;2024-01-10T02:56:34;100487.97;;;28.23;60.06
63395;BME280;49531;-34.520;150.798;2024-01-10T02:59:01;100479.41;;;28.25;59.88
63395;BME280;49531;-34.520;150.798;2024-01-10T03:01:28;100484.28;;;28.28;59.83
63395;BME280;49531;-34.520;150.798;2024-01-10T03:03:56;100481.22;;;28.29;59.74
63395;BME280;49531;-34.520;150.798;2024-01-10T03:06:23;100486.72;;;28.29;59.83
63395;BME280;49531;-34.520;150.798;2024-01-10T03:08:51;100477.50;;;28.34;59.91
63395;BME280;49531;-34.520;150.798;2024-01-10T03:11:18;100480.44;;;28.37;60.01
63395;BME280;49531;-34.520;150.798;2024-01-10T03:13:46;100458.13;;;28.39;59.91
63395;BME280;49531;-34.520;150.798;2024-01-10T03:16:14;100455.03;;;28.40;59.97
63395;BME280;49531;-34.520;150.798;2024-01-10T03:18:41;100465.38;;;28.43;59.75
63395;BME280;49531;-34.520;150.798;2024-01-10T03:21:08;100481.06;;;28.43;59.32
63395;BME280;49531;-34.520;150.798;2024-01-10T03:23:35;100470.88;;;28.43;59.30
63395;BME280;49531;-34.520;150.798;2024-01-10T03:26:02;100472.50;;;28.44;59.21
63395;BME280;49531;-34.520;150.798;2024-01-10T03:28:29;100468.13;;;28.43;59.28
63395;BME280;49531;-34.520;150.798;2024-01-10T03:30:56;100478.19;;;28.48;59.14
63395;BME280;49531;-34.520;150.798;2024-01-10T03:33:24;100457.00;;;28.48;58.95
63395;BME280;49531;-34.520;150.798;2024-01-10T03:35:51;100456.69;;;28.50;58.98
63395;BME280;49531;-34.520;150.798;2024-01-10T03:38:18;100453.63;;;28.51;59.12
63395;BME280;49531;-34.520;150.798;2024-01-10T03:40:45;100467.34;;;28.51;59.29
63395;BME280;49531;-34.520;150.798;2024-01-10T03:43:12;100461.22;;;28.54;59.38
63395;BME280;49531;-34.520;150.798;2024-01-10T03:45:40;100460.09;;;28.55;59.30
63395;BME280;49531;-34.520;150.798;2024-01-10T03:48:07;100450.41;;;28.58;59.45
63395;BME280;49531;-34.520;150.798;2024-01-10T03:50:34;100461.06;;;28.60;59.44
63395;BME280;49531;-34.520;150.798;2024-01-10T03:53:02;100450.56;;;28.62;59.36
63395;BME280;49531;-34.520;150.798;2024-01-10T03:55:29;100453.81;;;28.64;59.33
63395;BME280;49531;-34.520;150.798;2024-01-10T03:57:56;100455.09;;;28.66;59.30
63395;BME280;49531;-34.520;150.798;2024-01-10T04:00:24;100460.75;;;28.70;59.28
63395;BME280;49531;-34.520;150.798;2024-01-10T04:02:53;100455.91;;;28.67;59.25
63395;BME280;49531;-34.520;150.798;2024-01-10T04:05:20;100439.91;;;28.69;59.27
63395;BME280;49531;-34.520;150.798;2024-01-10T04:07:47;100437.16;;;28.69;59.11
63395;BME280;49531;-34.520;150.798;2024-01-10T04:10:14;100429.06;;;28.72;58.98
63395;BME280;49531;-34.520;150.798;2024-01-10T04:12:42;100422.13;;;28.75;59.05
63395;BME280;49531;-34.520;150.798;2024-01-10T04:15:10;100411.78;;;28.72;59.09
63395;BME280;49531;-34.520;150.798;2024-01-10T04:17:38;100410.31;;;28.74;58.93
63395;BME280;49531;-34.520;150.798;2024-01-10T04:20:05;100426.97;;;28.78;58.93
63395;BME280;49531;-34.520;150.798;2024-01-10T04:22:33;100436.47;;;28.80;59.19
63395;BME280;49531;-34.520;150.798;2024-01-10T04:25:01;100433.44;;;28.82;58.90
63395;BME280;49531;-34.520;150.798;2024-01-10T04:27:28;100430.38;;;28.83;59.02
63395;BME280;49531;-34.520;150.798;2024-01-10T04:29:55;100419.38;;;28.83;58.73
63395;BME280;49531;-34.520;150.798;2024-01-10T04:32:22;100415.16;;;28.86;58.86
63395;BME280;49531;-34.520;150.798;2024-01-10T04:34:49;100428.59;;;28.87;58.82
63395;BME280;49531;-34.520;150.798;2024-01-10T04:37:16;100412.59;;;28.90;58.90
63395;BME280;49531;-34.520;150.798;2024-01-10T04:39:43;100411.78;;;28.89;58.96
63395;BME280;49531;-34.520;150.798;2024-01-10T04:42:11;100396.09;;;28.90;58.94
63395;BME280;49531;-34.520;150.798;2024-01-10T04:44:38;100398.50;;;28.91;59.08
63395;BME280;49531;-34.520;150.798;2024-01-10T04:47:06;100394.63;;;28.92;58.83
63395;BME280;49531;-34.520;150.798;2024-01-10T04:49:33;100401.59;;;28.90;58.26
63395;BME280;49531;-34.520;150.798;2024-01-10T04:52:01;100393.66;;;28.88;58.64
63395;BME280;49531;-34.520;150.798;2024-01-10T04:54:28;100393.00;;;28.91;58.80
63395;BME280;49531;-34.520;150.798;2024-01-10T04:56:55;100387.34;;;28.87;59.08
63395;BME280;49531;-34.520;150.798;2024-01-10T04:59:22;100393.34;;;28.90;59.19
63395;BME280;49531;-34.520;150.798;2024-01-10T05:01:50;100385.91;;;28.90;59.13
63395;BME280;49531;-34.520;150.798;2024-01-10T05:04:17;100390.91;;;28.97;58.94
63395;BME280;49531;-34.520;150.798;2024-01-10T05:06:44;100391.41;;;28.90;59.17
63395;BME280;49531;-34.520;150.798;2024-01-10T05:09:12;100376.34;;;28.87;59.25
63395;BME280;49531;-34.520;150.798;2024-01-10T05:11:40;100357.75;;;28.84;58.88
63395;BME280;49531;-34.520;150.798;2024-01-10T05:14:07;100367.31;;;28.87;58.56
63395;BME280;49531;-34.520;150.798;2024-01-10T05:16:37;100387.34;;;28.87;58.75
63395;BME280;49531;-34.520;150.798;2024-01-10T05:19:05;100382.00;;;28.91;58.70
63395;BME280;49531;-34.520;150.798;2024-01-10T05:21:32;100393.19;;;28.95;58.62
63395;BME280;49531;-34.520;150.798;2024-01-10T05:24:00;100373.28;;;28.89;58.58
63395;BME280;49531;-34.520;150.798;2024-01-10T05:26:27;100377.47;;;28.95;58.82
63395;BME280;49531;-34.520;150.798;2024-01-10T05:28:54;100378.28;;;28.96;58.78
63395;BME280;49531;-34.520;150.798;2024-01-10T05:31:21;100388.16;;;28.97;58.37
63395;BME280;49531;-34.520;150.798;2024-01-10T05:33:48;100378.13;;;28.92;58.42
63395;BME280;49531;-34.520;150.798;2024-01-10T05:36:15;100369.41;;;28.90;58.44
63395;BME280;49531;-34.520;150.798;2024-01-10T05:38:42;100355.31;;;28.92;58.47
63395;BME280;49531;-34.520;150.798;2024-01-10T05:41:09;100360.03;;;28.82;58.53
63395;BME280;49531;-34.520;150.798;2024-01-10T05:43:36;100362.94;;;28.86;58.97
63395;BME280;49531;-34.520;150.798;2024-01-10T05:46:04;100364.22;;;28.88;58.84
63395;BME280;49531;-34.520;150.798;2024-01-10T05:48:31;100366.81;;;28.94;58.68
63395;BME280;49531;-34.520;150.798;2024-01-10T05:50:58;100368.91;;;28.88;58.88
63395;BME280;49531;-34.520;150.798;2024-01-10T05:53:25;100361.00;;;28.86;59.47
63395;BME280;49531;-34.520;150.798;2024-01-10T05:55:53;100347.56;;;28.94;59.46
63395;BME280;49531;-34.520;150.798;2024-01-10T05:58:20;100337.88;;;28.87;59.37
63395;BME280;49531;-34.520;150.798;2024-01-10T06:00:47;100347.41;;;28.90;59.74
63395;BME280;49531;-34.520;150.798;2024-01-10T06:03:14;100343.84;;;28.90;59.61
63395;BME280;49531;-34.520;150.798;2024-01-10T06:05:41;100344.34;;;28.83;59.47
63395;BME280;49531;-34.520;150.798;2024-01-10T06:08:08;100349.84;;;28.83;59.71
63395;BME280;49531;-34.520;150.798;2024-01-10T06:10:36;100347.56;;;28.94;59.46
63395;BME280;49531;-34.520;150.798;2024-01-10T06:13:03;100349.03;;;28.91;59.46
63395;BME280;49531;-34.520;150.798;2024-01-10T06:15:30;100355.34;;;28.83;59.76
63395;BME280;49531;-34.520;150.798;2024-01-10T06:17:57;100343.53;;;28.74;59.92
63395;BME280;49531;-34.520;150.798;2024-01-10T06:20:24;100339.50;;;28.63;60.07
63395;BME280;49531;-34.520;150.798;2024-01-10T06:22:51;100329.63;;;28.70;60.02
63395;BME280;49531;-34.520;150.798;2024-01-10T06:25:18;100329.31;;;28.72;59.88
63395;BME280;49531;-34.520;150.798;2024-01-10T06:27:45;100332.69;;;28.77;59.69
63395;BME280;49531;-34.520;150.798;2024-01-10T06:30:13;100339.81;;;28.78;59.59
63395;BME280;49531;-34.520;150.798;2024-01-10T06:32:40;100346.28;;;28.82;59.47
63395;BME280;49531;-34.520;150.798;2024-01-10T06:35:07;100344.16;;;28.79;59.55
63395;BME280;49531;-34.520;150.798;2024-01-10T06:37:36;100346.28;;;28.82;59.73
63395;BME280;49531;-34.520;150.798;2024-01-10T06:40:04;100345.31;;;28.87;59.25
63395;BME280;49531;-34.520;150.798;2024-01-10T06:42:32;100338.19;;;28.95;59.52
63395;BME280;49531;-34.520;150.798;2024-01-10T06:44:59;100331.69;;;28.99;59.51
63395;BME280;49531;-34.520;150.798;2024-01-10T06:47:27;100327.34;;;28.98;59.47
63395;BME280;49531;-34.520;150.798;2024-01-10T06:49:54;100345.44;;;28.99;59.39
63395;BME280;49531;-34.520;150.798;2024-01-10T06:52:21;100329.75;;;29.00;59.74
63395;BME280;49531;-34.520;150.798;2024-01-10T06:54:49;100342.69;;;28.99;59.59
63395;BME280;49531;-34.520;150.798;2024-01-10T06:57:20;100342.22;;;28.97;59.57
63395;BME280;49531;-34.520;150.798;2024-01-10T06:59:47;100346.91;;;28.97;59.75
63395;BME280;49531;-34.520;150.798;2024-01-10T07:02:14;100355.81;;;29.02;59.62
63395;BME280;49531;-34.520;150.798;2024-01-10T07:04:41;100344.31;;;29.00;59.52
63395;BME280;49531;-34.520;150.798;2024-01-10T07:07:09;100349.50;;;29.02;59.60
63395;BME280;49531;-34.520;150.798;2024-01-10T07:09:37;100345.13;;;29.01;59.71
63395;BME280;49531;-34.520;150.798;2024-01-10T07:12:07;100342.84;;;29.03;59.58
63395;BME280;49531;-34.520;150.798;2024-01-10T07:14:34;100352.56;;;29.00;59.75
63395;BME280;49531;-34.520;150.798;2024-01-10T07:17:01;100349.81;;;29.00;59.66
63395;BME280;49531;-34.520;150.798;2024-01-10T07:19:28;100349.81;;;29.00;59.81
63395;BME280;49531;-34.520;150.798;2024-01-10T07:21:56;100354.84;;;28.98;59.59
63395;BME280;49531;-34.520;150.798;2024-01-10T07:24:24;100358.88;;;29.01;59.49
63395;BME280;49531;-34.520;150.798;2024-01-10T07:26:51;100353.88;;;29.03;59.70
63395;BME280;49531;-34.520;150.798;2024-01-10T07:29:21;100358.56;;;29.02;59.75
63395;BME280;49531;-34.520;150.798;2024-01-10T07:31:48;100373.13;;;29.03;59.75
63395;BME280;49531;-34.520;150.798;2024-01-10T07:34:15;100375.06;;;29.02;59.71
63395;BME280;49531;-34.520;150.798;2024-01-10T07:36:42;100372.31;;;29.02;59.58
63395;BME280;49531;-34.520;150.798;2024-01-10T07:39:10;100375.06;;;29.02;59.32
63395;BME280;49531;-34.520;150.798;2024-01-10T07:41:37;100387.66;;;29.03;59.48
63395;BME280;49531;-34.520;150.798;2024-01-10T07:44:04;100398.03;;;29.06;59.63
63395;BME280;49531;-34.520;150.798;2024-01-10T07:46:31;100393.97;;;29.04;59.47
63395;BME280;49531;-34.520;150.798;2024-01-10T07:49:00;100401.91;;;29.05;59.55
63395;BME280;49531;-34.520;150.798;2024-01-10T07:51:27;100401.41;;;29.03;59.59
63395;BME280;49531;-34.520;150.798;2024-01-10T07:53:54;100406.91;;;29.03;59.76
63395;BME280;49531;-34.520;150.798;2024-01-10T07:56:22;100413.56;;;29.02;59.92
63395;BME280;49531;-34.520;150.798;2024-01-10T07:58:49;100416.78;;;29.04;59.75
63395;BME280;49531;-34.520;150.798;2024-01-10T08:01:18;100412.41;;;29.03;59.63
63395;BME280;49531;-34.520;150.798;2024-01-10T08:03:45;100412.41;;;29.03;59.55
63395;BME280;49531;-34.520;150.798;2024-01-10T08:06:12;100420.34;;;29.05;59.74
63395;BME280;49531;-34.520;150.798;2024-01-10T08:08:40;100423.41;;;29.03;59.51
63395;BME280;49531;-34.520;150.798;2024-01-10T08:11:07;100431.19;;;29.01;59.27
63395;BME280;49531;-34.520;150.798;2024-01-10T08:13:34;100441.53;;;29.04;59.67
63395;BME280;49531;-34.520;150.798;2024-01-10T08:16:01;100452.88;;;29.11;59.37
63395;BME280;49531;-34.520;150.798;2024-01-10T08:18:30;100463.38;;;29.09;59.19
63395;BME280;49531;-34.520;150.798;2024-01-10T08:20:57;100466.78;;;29.06;59.38
63395;BME280;49531;-34.520;150.798;2024-01-10T08:23:24;100464.69;;;29.12;59.33
63395;BME280;49531;-34.520;150.798;2024-01-10T08:25:52;100466.94;;;29.10;59.32
63395;BME280;49531;-34.520;150.798;2024-01-10T08:28:19;100469.84;;;29.05;59.30
63395;BME280;49531;-34.520;150.798;2024-01-10T08:30:46;100469.03;;;29.04;59.36
63395;BME280;49531;-34.520;150.798;2024-01-10T08:33:14;100483.94;;;29.03;59.35
63395;BME280;49531;-34.520;150.798;2024-01-10T08:35:41;100483.13;;;29.11;59.20
63395;BME280;49531;-34.520;150.798;2024-01-10T08:38:09;100480.38;;;29.11;58.86
63395;BME280;49531;-34.520;150.798;2024-01-10T08:40:36;100483.44;;;29.10;59.07
63395;BME280;49531;-34.520;150.798;2024-01-10T08:43:03;100491.38;;;29.03;59.23
63395;BME280;49531;-34.520;150.798;2024-01-10T08:45:31;100495.25;;;29.10;59.42
63395;BME280;49531;-34.520;150.798;2024-01-10T08:47:58;100495.25;;;29.10;59.07
63395;BME280;49531;-34.520;150.798;2024-01-10T08:50:25;100501.41;;;29.07;59.01
63395;BME280;49531;-34.520;150.798;2024-01-10T08:52:52;100498.63;;;28.99;59.26
63395;BME280;49531;-34.520;150.798;2024-01-10T08:55:19;100501.53;;;28.94;59.15
63395;BME280;49531;-34.520;150.798;2024-01-10T08:57:47;100504.13;;;28.90;59.38
63395;BME280;49531;-34.520;150.798;2024-01-10T09:00:17;100511.41;;;28.86;59.43
63395;BME280;49531;-34.520;150.798;2024-01-10T09:02:44;100514.97;;;28.86;59.34
63395;BME280;49531;-34.520;150.798;2024-01-10T09:05:12;100520.13;;;28.88;59.30
63395;BME280;49531;-34.520;150.798;2024-01-10T09:07:39;100528.22;;;28.93;59.25
63395;BME280;49531;-34.520;150.798;2024-01-10T09:10:06;100533.72;;;28.93;59.04
63395;BME280;49531;-34.520;150.798;2024-01-10T09:12:34;100534.38;;;28.90;59.32
63395;BME280;49531;-34.520;150.798;2024-01-10T09:15:01;100533.88;;;28.88;59.44
63395;BME280;49531;-34.520;150.798;2024-01-10T09:17:29;100542.78;;;28.85;59.57
63395;BME280;49531;-34.520;150.798;2024-01-10T09:19:59;100546.34;;;28.94;58.97
63395;BME280;49531;-34.520;150.798;2024-01-10T09:22:30;100552.97;;;28.93;59.16
63395;BME280;49531;-34.520;150.798;2024-01-10T09:24:57;100542.78;;;28.85;59.06
63395;BME280;49531;-34.520;150.798;2024-01-10T09:27:31;100544.72;;;28.84;59.43
63395;BME280;49531;-34.520;150.798;2024-01-10T09:29:58;100555.56;;;28.90;59.07
63395;BME280;49531;-34.520;150.798;2024-01-10T09:32:25;100553.28;;;28.83;59.25
63395;BME280;49531;-34.520;150.798;2024-01-10T09:34:52;100554.91;;;28.84;59.31
63395;BME280;49531;-34.520;150.798;2024-01-10T09:37:19;100568.66;;;28.84;59.04
63395;BME280;49531;-34.520;150.798;2024-01-10T09:39:46;100570.28;;;28.85;59.09
63395;BME280;49531;-34.520;150.798;2024-01-10T09:42:14;100564.78;;;28.85;59.03
63395;BME280;49531;-34.520;150.798;2024-01-10T09:44:42;100566.03;;;28.79;59.41
63395;BME280;49531;-34.520;150.798;2024-01-10T09:47:09;100566.81;;;28.79;59.10
63395;BME280;49531;-34.520;150.798;2024-01-10T09:49:36;100576.06;;;28.75;59.34
63395;BME280;49531;-34.520;150.798;2024-01-10T09:52:04;100580.94;;;28.78;59.17
63395;BME280;49531;-34.520;150.798;2024-01-10T09:54:38;100580.44;;;28.76;59.30
63395;BME280;49531;-34.520;150.798;2024-01-10T09:57:07;100580.56;;;28.71;59.50
63395;BME280;49531;-34.520;150.798;2024-01-10T09:59:36;100573.94;;;28.72;59.50
63395;BME280;49531;-34.520;150.798;2024-01-10T10:02:03;100587.19;;;28.70;59.56
63395;BME280;49531;-34.520;150.798;2024-01-10T10:04:31;100588.81;;;28.71;59.55
63395;BME280;49531;-34.520;150.798;2024-01-10T10:07:01;100586.53;;;28.64;59.57
63395;BME280;49531;-34.520;150.798;2024-01-10T10:09:29;100588.97;;;28.66;59.56
63395;BME280;49531;-34.520;150.798;2024-01-10T10:11:56;100585.09;;;28.67;59.78
63395;BME280;49531;-34.520;150.798;2024-01-10T10:14:29;100585.72;;;28.64;59.49
63395;BME280;49531;-34.520;150.798;2024-01-10T10:17:00;100582.81;;;28.60;59.76
63395;BME280;49531;-34.520;150.798;2024-01-10T10:19:39;100594.91;;;28.59;59.58
63395;BME280;49531;-34.520;150.798;2024-01-10T10:22:10;100596.84;;;28.59;59.68
63395;BME280;49531;-34.520;150.798;2024-01-10T10:24:39;100600.25;;;28.55;59.79
63395;BME280;49531;-34.520;150.798;2024-01-10T10:27:11;100595.06;;;28.54;59.67
63395;BME280;49531;-34.520;150.798;2024-01-10T10:29:39;100604.44;;;28.53;59.92
63395;BME280;49531;-34.520;150.798;2024-01-10T10:32:06;100611.56;;;28.54;59.53
63395;BME280;49531;-34.520;150.798;2024-01-10T10:34:34;100608.94;;;28.49;59.96
63395;BME280;49531;-34.520;150.798;2024-01-10T10:37:02;100613.63;;;28.48;60.35
63395;BME280;49531;-34.520;150.798;2024-01-10T10:39:29;100600.84;;;28.44;60.26
63395;BME280;49531;-34.520;150.798;2024-01-10T10:41:56;100595.03;;;28.45;60.31
63395;BME280;49531;-34.520;150.798;2024-01-10T10:44:24;100607.13;;;28.44;60.00
63395;BME280;49531;-34.520;150.798;2024-01-10T10:46:53;100617.63;;;28.42;60.07
63395;BME280;49531;-34.520;150.798;2024-01-10T10:49:28;100624.25;;;28.41;60.27
63395;BME280;49531;-34.520;150.798;2024-01-10T10:51:59;100620.06;;;28.44;60.24
63395;BME280;49531;-34.520;150.798;2024-01-10T10:54:29;100608.75;;;28.45;60.12
63395;BME280;49531;-34.520;150.798;2024-01-10T10:56:59;100606.34;;;28.44;60.21
63395;BME280;49531;-34.520;150.798;2024-01-10T10:59:29;100616.19;;;28.45;60.13
63395;BME280;49531;-34.520;150.798;2024-01-10T11:01:58;100617.00;;;28.45;60.11
63395;BME280;49531;-34.520;150.798;2024-01-10T11:04:26;100617.81;;;28.46;59.93
63395;BME280;49531;-34.520;150.798;2024-01-10T11:06:54;100612.63;;;28.44;59.99
63395;BME280;49531;-34.520;150.798;2024-01-10T11:09:22;100605.84;;;28.42;59.96
63395;BME280;49531;-34.520;150.798;2024-01-10T11:14:43;100597.28;;;28.43;60.08
63395;BME280;49531;-34.520;150.798;2024-01-10T11:25:38;100577.56;;;28.41;60.00
63395;BME280;49531;-34.520;150.798;2024-01-10T11:28:06;100580.63;;;28.40;60.02
63395;BME280;49531;-34.520;150.798;2024-01-10T11:30:38;100573.34;;;28.35;60.14
63395;BME280;49531;-34.520;150.798;2024-01-10T11:33:35;100585.28;;;28.39;60.14
63395;BME280;49531;-34.520;150.798;2024-01-10T11:36:18;100576.09;;;28.35;60.19
63395;BME280;49531;-34.520;150.798;2024-01-10T11:41:35;100572.03;;;28.33;60.31
63395;BME280;49531;-34.520;150.798;2024-01-10T11:46:52;100571.56;;;28.31;60.48
63395;BME280;49531;-34.520;150.798;2024-01-10T11:49:20;100573.00;;;28.28;60.32
63395;BME280;49531;-34.520;150.798;2024-01-10T11:51:56;100572.00;;;28.24;60.61
63395;BME280;49531;-34.520;150.798;2024-01-10T11:54:46;100573.00;;;28.28;60.54
63395;BME280;49531;-34.520;150.798;2024-01-10T11:57:36;100581.38;;;28.23;60.67
63395;BME280;49531;-34.520;150.798;2024-01-10T12:00:04;100584.84;;;28.15;60.96
63395;BME280;49531;-34.520;150.798;2024-01-10T12:02:38;100577.56;;;28.10;60.93
63395;BME280;49531;-34.520;150.798;2024-01-10T12:05:06;100581.59;;;28.13;60.98
63395;BME280;49531;-34.520;150.798;2024-01-10T12:07:34;100583.84;;;28.11;60.88
63395;BME280;49531;-34.520;150.798;2024-01-10T12:10:02;100581.59;;;28.13;60.87
63395;BME280;49531;-34.520;150.798;2024-01-10T12:12:29;100575.31;;;28.12;60.84
63395;BME280;49531;-34.520;150.798;2024-01-10T12:14:56;100575.47;;;28.16;60.84
63395;BME280;49531;-34.520;150.798;2024-01-10T12:17:28;100585.66;;;28.15;60.86
63395;BME280;49531;-34.520;150.798;2024-01-10T12:19:55;100584.34;;;28.13;60.77
63395;BME280;49531;-34.520;150.798;2024-01-10T12:22:22;100590.16;;;28.11;60.87
63395;BME280;49531;-34.520;150.798;2024-01-10T12:24:49;100584.47;;;28.08;60.97
63395;BME280;49531;-34.520;150.798;2024-01-10T12:27:17;100589.97;;;28.08;61.09
63395;BME280;49531;-34.520;150.798;2024-01-10T12:29:48;100596.09;;;28.05;61.17
63395;BME280;49531;-34.520;150.798;2024-01-10T12:32:18;100597.53;;;28.02;61.14
63395;BME280;49531;-34.520;150.798;2024-01-10T12:34:48;100596.22;;;28.00;61.12
63395;BME280;49531;-34.520;150.798;2024-01-10T12:37:15;100606.25;;;27.96;61.38
63395;BME280;49531;-34.520;150.798;2024-01-10T12:39:43;100613.34;;;27.97;61.20
63395;BME280;49531;-34.520;150.798;2024-01-10T12:42:10;100611.22;;;27.94;61.38